TimeCDT,TemperatureF,Dew PointF,Humidity,Sea Level PressureIn,VisibilityMPH,Wind Direction,Wind SpeedMPH,Gust SpeedMPH,PrecipitationIn,Events,Conditions,WindDirDegrees,DateUTC
12:15 AM,63.3,41.0,44,29.94,10.0,West,11.5,-,N/A,,Clear,280,2012-10-04 05:15:00
12:35 AM,61.7,40.6,46,29.94,10.0,Calm,Calm,-,N/A,,Clear,0,2012-10-04 05:35:00
12:55 AM,61.7,40.8,46,29.93,10.0,SSE,3.5,-,N/A,,Clear,160,2012-10-04 05:55:00
1:15 AM,60.8,41.2,48,29.96,10.0,NW,12.7,-,N/A,,Clear,310,2012-10-04 06:15:00
1:35 AM,60.3,41.0,49,29.98,10.0,NW,20.7,29.9,N/A,,Clear,320,2012-10-04 06:35:00
1:55 AM,59.2,41.0,51,29.99,10.0,NW,15.0,25.3,N/A,,Clear,320,2012-10-04 06:55:00
2:15 AM,57.2,40.5,54,30.00,10.0,NNW,12.7,24.2,N/A,,Clear,330,2012-10-04 07:15:00
2:35 AM,54.9,40.5,58,30.02,10.0,NW,16.1,20.7,N/A,,Clear,310,2012-10-04 07:35:00
2:55 AM,54.5,40.5,59,30.05,10.0,NW,20.7,26.5,N/A,,Clear,320,2012-10-04 07:55:00
3:15 AM,54.1,40.3,59,30.03,10.0,NNW,19.6,26.5,N/A,Thunderstorm,Scattered Clouds,330,2012-10-04 08:15:00
3:35 AM,53.8,41.0,62,30.04,10.0,NW,15.0,23.0,N/A,Thunderstorm,Thunderstorm,320,2012-10-04 08:35:00
3:55 AM,52.0,42.8,71,30.05,10.0,NNW,13.8,21.9,N/A,,Clear,330,2012-10-04 08:55:00
4:15 AM,51.3,43.3,74,30.03,10.0,NNW,9.2,-,N/A,Thunderstorm,Clear,340,2012-10-04 09:15:00
4:35 AM,51.8,42.8,71,30.09,10.0,WNW,11.5,-,N/A,,Scattered Clouds,300,2012-10-04 09:35:00
4:55 AM,50.2,43.0,76,30.10,10.0,NW,16.1,25.3,N/A,,Light Drizzle,310,2012-10-04 09:55:00
5:15 AM,50.0,42.8,76,30.11,10.0,NW,17.3,21.9,N/A,,Scattered Clouds,310,2012-10-04 10:15:00
5:35 AM,50.0,41.4,72,30.11,10.0,NW,19.6,26.5,N/A,,Scattered Clouds,320,2012-10-04 10:35:00
5:55 AM,49.1,40.5,72,30.11,10.0,NW,12.7,-,N/A,,Scattered Clouds,320,2012-10-04 10:55:00
6:15 AM,48.4,40.1,73,30.15,10.0,NW,11.5,21.9,N/A,,Clear,310,2012-10-04 11:15:00
6:35 AM,47.7,39.4,73,30.13,10.0,NW,10.4,19.6,N/A,Thunderstorm,Clear,320,2012-10-04 11:35:00
6:55 AM,47.3,38.8,72,30.13,10.0,NNW,15.0,23.0,N/A,,Clear,330,2012-10-04 11:55:00
7:15 AM,47.3,38.1,70,30.16,10.0,NW,17.3,-,N/A,Thunderstorm,Clear,320,2012-10-04 12:15:00
7:35 AM,47.3,37.6,69,30.16,10.0,NW,18.4,27.6,N/A,,Scattered Clouds,320,2012-10-04 12:35:00
7:55 AM,46.9,36.5,67,30.16,10.0,NNW,17.3,28.8,N/A,,Mostly Cloudy,330,2012-10-04 12:55:00
8:15 AM,46.8,36.7,68,30.18,10.0,NW,17.3,21.9,N/A,Thunderstorm,Thunderstorm,310,2012-10-04 13:15:00
8:35 AM,46.4,35.1,65,30.19,10.0,NW,21.9,26.5,N/A,Thunderstorm,Thunderstorm,320,2012-10-04 13:35:00
8:55 AM,45.9,35.2,66,30.20,10.0,NW,21.9,28.8,N/A,,Scattered Clouds,320,2012-10-04 13:55:00
9:15 AM,46.9,35.6,65,30.21,10.0,NW,18.4,25.3,N/A,Thunderstorm,Scattered Clouds,320,2012-10-04 14:15:00
9:35 AM,46.8,35.1,64,30.21,10.0,NW,19.6,26.5,N/A,Thunderstorm,Mostly Cloudy,320,2012-10-04 14:35:00
9:55 AM,47.3,35.2,63,30.21,10.0,NW,19.6,24.2,N/A,Thunderstorm,Thunderstorm,320,2012-10-04 14:55:00
10:15 AM,47.7,35.2,62,30.24,10.0,NW,15.0,24.2,N/A,,Overcast,320,2012-10-04 15:15:00
10:35 AM,49.3,35.1,58,30.23,10.0,NNW,16.1,23.0,N/A,Thunderstorm,Overcast,330,2012-10-04 15:35:00
10:55 AM,49.1,34.2,56,30.25,10.0,NW,18.4,23.0,N/A,,Overcast,320,2012-10-04 15:55:00
11:15 AM,49.8,32.5,51,30.26,10.0,NW,17.3,28.8,N/A,,Mostly Cloudy,320,2012-10-04 16:15:00
11:35 AM,51.8,33.6,50,30.25,10.0,NW,19.6,24.2,N/A,,Scattered Clouds,320,2012-10-04 16:35:00
11:55 AM,51.3,33.4,51,30.26,10.0,NW,16.1,19.6,N/A,,Scattered Clouds,310,2012-10-04 16:55:00
12:15 PM,52.0,33.6,50,30.26,10.0,NW,15.0,25.3,N/A,Thunderstorm,Scattered Clouds,320,2012-10-04 17:15:00
12:35 PM,52.7,33.4,48,30.26,10.0,NW,13.8,25.3,N/A,,Scattered Clouds,320,2012-10-04 17:35:00
12:55 PM,52.7,32.9,47,30.27,10.0,NW,16.1,25.3,N/A,,Scattered Clouds,320,2012-10-04 17:55:00
1:35 PM,53.8,32.9,45,30.26,10.0,NNW,11.5,24.2,N/A,,Scattered Clouds,330,2012-10-04 18:35:00
1:55 PM,54.9,32.5,43,30.26,10.0,NNW,11.5,21.9,N/A,,Clear,330,2012-10-04 18:55:00
2:15 PM,55.6,32.0,41,30.25,10.0,NW,15.0,24.2,N/A,,Clear,320,2012-10-04 19:15:00
2:35 PM,56.8,32.0,39,30.24,10.0,NW,15.0,23.0,N/A,,Clear,310,2012-10-04 19:35:00
2:55 PM,56.8,32.0,39,30.24,10.0,NNW,15.0,24.2,N/A,,Clear,330,2012-10-04 19:55:00
3:15 PM,57.2,31.8,38,30.23,10.0,WNW,11.5,21.9,N/A,,Clear,300,2012-10-04 20:15:00
3:35 PM,57.4,31.8,38,30.23,10.0,NNW,15.0,19.6,N/A,,Clear,330,2012-10-04 20:35:00
3:55 PM,57.4,31.8,38,30.23,10.0,NNW,15.0,20.7,N/A,,Clear,330,2012-10-04 20:55:00
4:15 PM,55.4,31.3,40,30.24,10.0,NNW,9.2,-,N/A,,Clear,330,2012-10-04 21:15:00
4:35 PM,55.4,31.1,40,30.23,10.0,NW,12.7,20.7,N/A,,Clear,320,2012-10-04 21:35:00
4:55 PM,57.7,30.7,36,30.24,10.0,NNW,11.5,18.4,N/A,,Clear,330,2012-10-04 21:55:00
5:15 PM,56.8,30.4,37,30.23,10.0,NNW,11.5,19.6,N/A,,Clear,330,2012-10-04 22:15:00
5:35 PM,56.1,30.4,38,30.23,10.0,NNW,11.5,-,N/A,,Clear,330,2012-10-04 22:35:00
5:55 PM,55.4,30.6,39,30.24,10.0,NNW,8.1,-,N/A,,Clear,340,2012-10-04 22:55:00
6:15 PM,54.3,29.8,39,30.24,10.0,NNW,9.2,-,N/A,,Clear,340,2012-10-04 23:15:00
6:35 PM,53.6,30.4,41,30.24,10.0,NNW,11.5,17.3,N/A,,Clear,330,2012-10-04 23:35:00
6:55 PM,52.9,30.2,42,30.25,10.0,NNW,6.9,-,N/A,,Clear,330,2012-10-04 23:55:00
7:15 PM,52.3,30.6,43,30.26,10.0,NW,9.2,-,N/A,,Clear,320,2012-10-05 00:15:00
7:35 PM,51.4,30.7,45,30.27,10.0,NW,8.1,-,N/A,,Clear,320,2012-10-05 00:35:00
7:55 PM,51.3,30.7,45,30.27,10.0,NW,6.9,-,N/A,,Clear,310,2012-10-05 00:55:00
8:15 PM,50.9,31.6,48,30.28,10.0,NW,5.8,-,N/A,,Clear,320,2012-10-05 01:15:00
8:35 PM,50.5,31.6,48,30.26,10.0,NNW,4.6,-,N/A,,Clear,330,2012-10-05 01:35:00
8:55 PM,50.2,31.6,49,30.26,10.0,NNW,6.9,-,N/A,,Clear,330,2012-10-05 01:55:00
9:15 PM,50.4,31.5,48,30.28,10.0,NW,8.1,-,N/A,,Scattered Clouds,320,2012-10-05 02:15:00
9:35 PM,50.2,31.3,48,30.29,10.0,NW,9.2,-,N/A,,Scattered Clouds,320,2012-10-05 02:35:00
9:55 PM,50.0,31.1,48,30.29,10.0,NW,8.1,-,N/A,,Clear,320,2012-10-05 02:55:00
10:15 PM,49.6,30.9,49,30.30,10.0,NNW,8.1,-,N/A,,Scattered Clouds,330,2012-10-05 03:15:00
10:35 PM,49.5,30.7,49,30.27,10.0,North,10.4,16.1,N/A,,Scattered Clouds,350,2012-10-05 03:35:00
10:55 PM,49.5,30.6,48,30.29,10.0,NNW,5.8,-,N/A,,Scattered Clouds,340,2012-10-05 03:55:00
11:15 PM,49.3,30.7,49,30.29,10.0,NNW,6.9,-,N/A,,Mostly Cloudy,330,2012-10-05 04:15:00
11:35 PM,49.3,30.7,49,30.30,10.0,NNW,8.1,-,N/A,,Mostly Cloudy,330,2012-10-05 04:35:00
11:55 PM,48.7,30.2,49,30.30,10.0,NNW,10.4,-,N/A,,Overcast,340,2012-10-05 04:55:00